sensor_id;sensor_type;location;lat;lon;timestamp;pressure;altitude;pressure_sealevel;temperature;humidity
76074;BME280;64776;42.636;24.358;2023-02-10T00:02:33;91594.13;;;-14.33;72.72
76074;BME280;64776;42.636;24.358;2023-02-10T00:05:34;91583.78;;;-14.55;72.74
76074;BME280;64776;42.636;24.358;2023-02-10T00:08:35;91593.44;;;-14.52;73.05
76074;BME280;64776;42.636;24.358;2023-02-10T00:11:37;91595.25;;;-14.52;73.93
76074;BME280;64776;42.636;24.358;2023-02-10T00:14:38;91594.22;;;-14.51;73.10
76074;BME280;64776;42.636;24.358;2023-02-10T00:17:38;91592.50;;;-14.56;73.76
76074;BME280;64776;42.636;24.358;2023-02-10T00:20:39;91600.94;;;-14.55;74.68
76074;BME280;64776;42.636;24.358;2023-02-10T00:23:40;91597.16;;;-14.58;74.14
76074;BME280;64776;42.636;24.358;2023-02-10T00:26:43;91598.69;;;-14.57;74.18
76074;BME280;64776;42.636;24.358;2023-02-10T00:29:44;91610.81;;;-14.62;73.81
76074;BME280;64776;42.636;24.358;2023-02-10T00:32:45;91606.34;;;-14.70;73.46
76074;BME280;64776;42.636;24.358;2023-02-10T00:35:46;91597.41;;;-14.73;73.37
76074;BME280;64776;42.636;24.358;2023-02-10T00:38:46;91603.00;;;-14.71;73.52
76074;BME280;64776;42.636;24.358;2023-02-10T00:41:48;91602.28;;;-14.71;73.97
76074;BME280;64776;42.636;24.358;2023-02-10T00:44:49;91598.81;;;-14.94;73.44
76074;BME280;64776;42.636;24.358;2023-02-10T00:47:50;91591.03;;;-14.89;73.78
76074;BME280;64776;42.636;24.358;2023-02-10T00:50:51;91594.84;;;-14.86;73.77
76074;BME280;64776;42.636;24.358;2023-02-10T00:53:51;91584.03;;;-14.83;73.72
76074;BME280;64776;42.636;24.358;2023-02-10T00:56:54;91586.75;;;-14.93;73.38
76074;BME280;64776;42.636;24.358;2023-02-10T00:59:54;91577.78;;;-14.91;73.93
76074;BME280;64776;42.636;24.358;2023-02-10T01:02:55;91577.59;;;-14.94;73.58
76074;BME280;64776;42.636;24.358;2023-02-10T01:05:56;91572.66;;;-14.91;73.08
76074;BME280;64776;42.636;24.358;2023-02-10T01:08:57;91573.72;;;-14.92;73.45
76074;BME280;64776;42.636;24.358;2023-02-10T01:11:59;91570.44;;;-14.97;73.33
76074;BME280;64776;42.636;24.358;2023-02-10T01:15:00;91574.56;;;-14.83;73.13
76074;BME280;64776;42.636;24.358;2023-02-10T01:18:01;91560.91;;;-14.92;73.29
76074;BME280;64776;42.636;24.358;2023-02-10T01:21:07;91570.75;;;-14.99;72.77
76074;BME280;64776;42.636;24.358;2023-02-10T01:24:09;91575.47;;;-15.06;73.07
76074;BME280;64776;42.636;24.358;2023-02-10T01:27:11;91565.03;;;-15.10;73.26
76074;BME280;64776;42.636;24.358;2023-02-10T01:30:12;91566.56;;;-15.09;73.95
76074;BME280;64776;42.636;24.358;2023-02-10T01:33:13;91571.09;;;-15.06;73.28
76074;BME280;64776;42.636;24.358;2023-02-10T01:36:16;91565.44;;;-15.02;72.91
76074;BME280;64776;42.636;24.358;2023-02-10T01:39:17;91565.50;;;-15.08;72.52
76074;BME280;64776;42.636;24.358;2023-02-10T01:42:19;91556.69;;;-15.15;73.18
76074;BME280;64776;42.636;24.358;2023-02-10T01:45:24;91558.97;;;-15.14;73.29
76074;BME280;64776;42.636;24.358;2023-02-10T01:48:26;91551.94;;;-15.22;72.61
76074;BME280;64776;42.636;24.358;2023-02-10T01:51:32;91549.34;;;-15.49;74.18
76074;BME280;64776;42.636;24.358;2023-02-10T01:54:38;91549.66;;;-15.23;73.67
76074;BME280;64776;42.636;24.358;2023-02-10T01:57:42;91549.16;;;-15.39;73.73
76074;BME280;64776;42.636;24.358;2023-02-10T02:00:43;91542.06;;;-15.42;72.96
76074;BME280;64776;42.636;24.358;2023-02-10T02:03:45;91541.66;;;-15.49;72.33
76074;BME280;64776;42.636;24.358;2023-02-10T02:06:46;91541.84;;;-15.59;72.46
76074;BME280;64776;42.636;24.358;2023-02-10T02:09:47;91531.06;;;-15.56;72.81
76074;BME280;64776;42.636;24.358;2023-02-10T02:12:55;91524.41;;;-15.57;73.61
76074;BME280;64776;42.636;24.358;2023-02-10T02:16:01;91524.34;;;-15.52;73.86
76074;BME280;64776;42.636;24.358;2023-02-10T02:19:22;91531.59;;;-15.59;73.62
76074;BME280;64776;42.636;24.358;2023-02-10T02:23:02;91525.88;;;-15.69;72.78
76074;BME280;64776;42.636;24.358;2023-02-10T02:26:32;91520.00;;;-15.70;73.00
76074;BME280;64776;42.636;24.358;2023-02-10T02:29:55;91524.16;;;-15.74;73.49
76074;BME280;64776;42.636;24.358;2023-02-10T02:33:04;91515.81;;;-15.79;73.06
76074;BME280;64776;42.636;24.358;2023-02-10T02:36:11;91516.97;;;-15.72;73.00
76074;BME280;64776;42.636;24.358;2023-02-10T02:39:14;91511.31;;;-15.69;72.97
76074;BME280;64776;42.636;24.358;2023-02-10T02:42:16;91506.69;;;-15.67;73.38
76074;BME280;64776;42.636;24.358;2023-02-10T02:45:19;91506.00;;;-15.72;72.59
76074;BME280;64776;42.636;24.358;2023-02-10T02:48:43;91497.63;;;-15.78;74.00
76074;BME280;64776;42.636;24.358;2023-02-10T02:51:51;91493.66;;;-15.84;73.02
76074;BME280;64776;42.636;24.358;2023-02-10T02:54:59;91485.25;;;-15.84;73.91
76074;BME280;64776;42.636;24.358;2023-02-10T02:58:10;91485.59;;;-15.91;72.68
76074;BME280;64776;42.636;24.358;2023-02-10T03:01:17;91487.94;;;-15.95;72.60
76074;BME280;64776;42.636;24.358;2023-02-10T03:04:21;91483.84;;;-16.09;73.54
76074;BME280;64776;42.636;24.358;2023-02-10T03:07:22;91483.38;;;-15.98;73.61
76074;BME280;64776;42.636;24.358;2023-02-10T03:10:23;91482.22;;;-15.86;73.28
76074;BME280;64776;42.636;24.358;2023-02-10T03:13:24;91489.66;;;-15.90;72.77
76074;BME280;64776;42.636;24.358;2023-02-10T03:16:24;91490.78;;;-15.96;72.31
76074;BME280;64776;42.636;24.358;2023-02-10T03:19:27;91480.84;;;-15.98;72.78
76074;BME280;64776;42.636;24.358;2023-02-10T03:22:27;91482.34;;;-15.97;72.89
76074;BME280;64776;42.636;24.358;2023-02-10T03:25:28;91483.59;;;-15.94;72.99
76074;BME280;64776;42.636;24.358;2023-02-10T03:28:29;91487.53;;;-16.02;72.50
76074;BME280;64776;42.636;24.358;2023-02-10T03:31:29;91489.81;;;-16.00;71.75
76074;BME280;64776;42.636;24.358;2023-02-10T03:34:32;91483.47;;;-16.03;73.19
76074;BME280;64776;42.636;24.358;2023-02-10T03:37:33;91477.13;;;-16.05;72.62
76074;BME280;64776;42.636;24.358;2023-02-10T03:40:33;91480.03;;;-16.12;73.30
76074;BME280;64776;42.636;24.358;2023-02-10T03:43:34;91477.81;;;-16.18;73.56
76074;BME280;64776;42.636;24.358;2023-02-10T03:46:34;91483.47;;;-16.21;73.77
76074;BME280;64776;42.636;24.358;2023-02-10T03:49:37;91471.28;;;-16.24;73.84
76074;BME280;64776;42.636;24.358;2023-02-10T03:52:38;91481.97;;;-16.22;73.24
76074;BME280;64776;42.636;24.358;2023-02-10T03:55:38;91480.88;;;-16.35;72.49
76074;BME280;64776;42.636;24.358;2023-02-10T03:58:39;91487.22;;;-16.32;72.57
76074;BME280;64776;42.636;24.358;2023-02-10T04:01:39;91486.31;;;-16.41;73.39
76074;BME280;64776;42.636;24.358;2023-02-10T04:04:42;91476.09;;;-16.41;73.88
76074;BME280;64776;42.636;24.358;2023-02-10T04:07:43;91488.09;;;-16.42;73.41
76074;BME280;64776;42.636;24.358;2023-02-10T04:10:43;91475.00;;;-16.35;73.78
76074;BME280;64776;42.636;24.358;2023-02-10T04:13:44;91473.16;;;-16.30;72.30
76074;BME280;64776;42.636;24.358;2023-02-10T04:16:45;91471.47;;;-16.39;71.73
76074;BME280;64776;42.636;24.358;2023-02-10T04:19:47;91474.66;;;-16.47;72.80
76074;BME280;64776;42.636;24.358;2023-02-10T04:22:48;91487.38;;;-16.42;72.83
76074;BME280;64776;42.636;24.358;2023-02-10T04:25:49;91482.03;;;-16.46;72.83
76074;BME280;64776;42.636;24.358;2023-02-10T04:28:49;91472.06;;;-16.42;71.73
76074;BME280;64776;42.636;24.358;2023-02-10T04:31:50;91488.06;;;-16.55;72.44
76074;BME280;64776;42.636;24.358;2023-02-10T04:34:52;91477.66;;;-16.59;71.92
76074;BME280;64776;42.636;24.358;2023-02-10T04:37:53;91485.38;;;-16.64;72.14
76074;BME280;64776;42.636;24.358;2023-02-10T04:40:54;91488.59;;;-16.58;72.14
76074;BME280;64776;42.636;24.358;2023-02-10T04:43:54;91486.97;;;-16.68;73.19
76074;BME280;64776;42.636;24.358;2023-02-10T04:46:55;91489.84;;;-16.74;71.71
76074;BME280;64776;42.636;24.358;2023-02-10T04:49:57;91492.88;;;-16.72;72.12
76074;BME280;64776;42.636;24.358;2023-02-10T04:52:58;91490.19;;;-16.62;73.91
76074;BME280;64776;42.636;24.358;2023-02-10T04:55:59;91489.19;;;-16.61;74.04
76074;BME280;64776;42.636;24.358;2023-02-10T04:58:59;91492.00;;;-16.63;72.66
76074;BME280;64776;42.636;24.358;2023-02-10T05:02:00;91492.25;;;-16.64;72.81
76074;BME280;64776;42.636;24.358;2023-02-10T05:05:03;91503.94;;;-16.58;72.35
76074;BME280;64776;42.636;24.358;2023-02-10T05:08:04;91501.44;;;-16.63;72.24
76074;BME280;64776;42.636;24.358;2023-02-10T05:11:05;91497.72;;;-16.71;71.79
76074;BME280;64776;42.636;24.358;2023-02-10T05:14:05;91495.66;;;-16.69;72.47
76074;BME280;64776;42.636;24.358;2023-02-10T05:17:06;91501.25;;;-16.67;72.14
76074;BME280;64776;42.636;24.358;2023-02-10T05:20:09;91500.97;;;-16.65;72.11
76074;BME280;64776;42.636;24.358;2023-02-10T05:23:09;91505.22;;;-16.80;72.76
76074;BME280;64776;42.636;24.358;2023-02-10T05:26:10;91507.22;;;-16.77;73.72
76074;BME280;64776;42.636;24.358;2023-02-10T05:29:11;91504.75;;;-16.82;72.05
76074;BME280;64776;42.636;24.358;2023-02-10T05:32:11;91505.47;;;-16.81;71.54
76074;BME280;64776;42.636;24.358;2023-02-10T05:35:13;91510.38;;;-16.85;71.38
76074;BME280;64776;42.636;24.358;2023-02-10T05:38:15;91512.94;;;-16.85;73.19
76074;BME280;64776;42.636;24.358;2023-02-10T05:41:15;91516.75;;;-16.82;72.62
76074;BME280;64776;42.636;24.358;2023-02-10T05:44:16;91518.00;;;-16.80;72.80
76074;BME280;64776;42.636;24.358;2023-02-10T05:47:17;91514.22;;;-16.87;71.89
76074;BME280;64776;42.636;24.358;2023-02-10T05:50:19;91522.84;;;-16.83;73.46
76074;BME280;64776;42.636;24.358;2023-02-10T05:53:20;91525.84;;;-16.76;72.76
76074;BME280;64776;42.636;24.358;2023-02-10T05:56:21;91520.91;;;-16.67;73.41
76074;BME280;64776;42.636;24.358;2023-02-10T05:59:22;91533.06;;;-16.59;72.36
76074;BME280;64776;42.636;24.358;2023-02-10T06:02:24;91529.03;;;-16.65;72.92
76074;BME280;64776;42.636;24.358;2023-02-10T06:05:26;91527.50;;;-16.66;72.29
76074;BME280;64776;42.636;24.358;2023-02-10T06:08:27;91536.69;;;-16.65;73.21
76074;BME280;64776;42.636;24.358;2023-02-10T06:11:28;91535.53;;;-16.54;72.89
76074;BME280;64776;42.636;24.358;2023-02-10T06:14:29;91537.38;;;-16.41;73.50
76074;BME280;64776;42.636;24.358;2023-02-10T06:17:29;91536.00;;;-16.34;73.94
76074;BME280;64776;42.636;24.358;2023-02-10T06:20:31;91539.47;;;-16.25;72.66
76074;BME280;64776;42.636;24.358;2023-02-10T06:23:32;91531.81;;;-16.06;74.04
76074;BME280;64776;42.636;24.358;2023-02-10T06:26:33;91538.69;;;-16.07;72.80
76074;BME280;64776;42.636;24.358;2023-02-10T06:29:34;91538.97;;;-16.08;72.43
76074;BME280;64776;42.636;24.358;2023-02-10T06:32:34;91550.16;;;-16.04;73.10
76074;BME280;64776;42.636;24.358;2023-02-10T06:35:36;91542.31;;;-15.89;72.60
76074;BME280;64776;42.636;24.358;2023-02-10T06:38:37;91538.63;;;-15.83;72.11
76074;BME280;64776;42.636;24.358;2023-02-10T06:41:38;91535.09;;;-15.68;73.48
76074;BME280;64776;42.636;24.358;2023-02-10T06:44:38;91534.47;;;-15.47;72.59
76074;BME280;64776;42.636;24.358;2023-02-10T06:47:39;91531.06;;;-15.29;73.05
76074;BME280;64776;42.636;24.358;2023-02-10T06:50:41;91531.09;;;-15.15;72.03
76074;BME280;64776;42.636;24.358;2023-02-10T06:53:42;91529.31;;;-15.01;73.71
76074;BME280;64776;42.636;24.358;2023-02-10T06:56:43;91530.00;;;-14.68;72.90
76074;BME280;64776;42.636;24.358;2023-02-10T06:59:44;91523.72;;;-14.49;73.04
76074;BME280;64776;42.636;24.358;2023-02-10T07:02:44;91527.09;;;-14.26;72.09
76074;BME280;64776;42.636;24.358;2023-02-10T07:05:46;91529.53;;;-14.21;72.38
76074;BME280;64776;42.636;24.358;2023-02-10T07:08:47;91530.25;;;-14.07;71.90
76074;BME280;64776;42.636;24.358;2023-02-10T07:11:48;91526.81;;;-14.02;72.45
76074;BME280;64776;42.636;24.358;2023-02-10T07:14:49;91525.28;;;-13.90;72.29
76074;BME280;64776;42.636;24.358;2023-02-10T07:17:50;91519.34;;;-13.77;72.83
76074;BME280;64776;42.636;24.358;2023-02-10T07:20:52;91519.91;;;-13.58;72.61
76074;BME280;64776;42.636;24.358;2023-02-10T07:23:53;91518.81;;;-13.43;72.19
76074;BME280;64776;42.636;24.358;2023-02-10T07:26:54;91516.66;;;-13.27;72.46
76074;BME280;64776;42.636;24.358;2023-02-10T07:29:55;91515.81;;;-13.14;72.59
76074;BME280;64776;42.636;24.358;2023-02-10T07:32:55;91510.88;;;-12.94;72.51
76074;BME280;64776;42.636;24.358;2023-02-10T07:35:59;91516.53;;;-12.83;71.87
76074;BME280;64776;42.636;24.358;2023-02-10T07:39:00;91514.16;;;-12.71;71.80
76074;BME280;64776;42.636;24.358;2023-02-10T07:42:01;91516.63;;;-12.58;72.19
76074;BME280;64776;42.636;24.358;2023-02-10T07:45:03;91507.03;;;-12.35;71.55
76074;BME280;64776;42.636;24.358;2023-02-10T07:48:04;91504.03;;;-12.11;71.73
76074;BME280;64776;42.636;24.358;2023-02-10T07:51:06;91500.28;;;-11.88;71.44
76074;BME280;64776;42.636;24.358;2023-02-10T07:54:10;91498.28;;;-11.66;71.27
76074;BME280;64776;42.636;24.358;2023-02-10T07:57:11;91500.06;;;-11.40;70.31
76074;BME280;64776;42.636;24.358;2023-02-10T08:00:13;91490.34;;;-11.26;70.29
76074;BME280;64776;42.636;24.358;2023-02-10T08:03:14;91492.72;;;-11.04;70.69
76074;BME280;64776;42.636;24.358;2023-02-10T08:06:20;91486.44;;;-10.77;69.55
76074;BME280;64776;42.636;24.358;2023-02-10T08:09:41;91497.66;;;-10.44;68.88
76074;BME280;64776;42.636;24.358;2023-02-10T08:12:42;91497.16;;;-10.09;68.75
76074;BME280;64776;42.636;24.358;2023-02-10T08:15:43;91488.44;;;-9.75;67.58
76074;BME280;64776;42.636;24.358;2023-02-10T08:18:44;91492.78;;;-9.46;67.28
76074;BME280;64776;42.636;24.358;2023-02-10T08:21:46;91489.31;;;-9.18;66.09
76074;BME280;64776;42.636;24.358;2023-02-10T08:24:47;91495.53;;;-8.86;64.31
76074;BME280;64776;42.636;24.358;2023-02-10T08:27:48;91490.63;;;-8.55;64.10
76074;BME280;64776;42.636;24.358;2023-02-10T08:30:49;91487.84;;;-8.25;63.27
76074;BME280;64776;42.636;24.358;2023-02-10T08:33:51;91486.50;;;-7.95;61.71
76074;BME280;64776;42.636;24.358;2023-02-10T08:36:53;91485.38;;;-7.58;59.94
76074;BME280;64776;42.636;24.358;2023-02-10T08:39:54;91483.56;;;-7.30;58.49
76074;BME280;64776;42.636;24.358;2023-02-10T08:42:55;91478.22;;;-6.94;57.07
76074;BME280;64776;42.636;24.358;2023-02-10T08:45:57;91485.22;;;-6.67;56.73
76074;BME280;64776;42.636;24.358;2023-02-10T08:48:58;91483.47;;;-6.31;55.54
76074;BME280;64776;42.636;24.358;2023-02-10T08:52:00;91485.38;;;-5.97;54.01
76074;BME280;64776;42.636;24.358;2023-02-10T08:55:01;91474.22;;;-5.63;53.32
76074;BME280;64776;42.636;24.358;2023-02-10T08:58:02;91474.53;;;-5.30;52.08
76074;BME280;64776;42.636;24.358;2023-02-10T09:01:08;91469.88;;;-5.02;48.10
76074;BME280;64776;42.636;24.358;2023-02-10T09:04:10;91475.75;;;-4.66;47.40
76074;BME280;64776;42.636;24.358;2023-02-10T09:07:12;91476.78;;;-4.26;47.39
76074;BME280;64776;42.636;24.358;2023-02-10T09:10:14;91473.41;;;-4.03;46.63
76074;BME280;64776;42.636;24.358;2023-02-10T09:13:15;91472.47;;;-3.69;47.15
76074;BME280;64776;42.636;24.358;2023-02-10T09:16:15;91472.88;;;-3.38;46.48
76074;BME280;64776;42.636;24.358;2023-02-10T09:19:16;91475.06;;;-3.13;46.49
76074;BME280;64776;42.636;24.358;2023-02-10T09:22:19;91468.97;;;-2.91;46.60
76074;BME280;64776;42.636;24.358;2023-02-10T09:25:20;91466.78;;;-2.53;46.49
76074;BME280;64776;42.636;24.358;2023-02-10T09:28:23;91465.84;;;-2.34;45.43
76074;BME280;64776;42.636;24.358;2023-02-10T09:31:24;91467.13;;;-2.14;45.41
76074;BME280;64776;42.636;24.358;2023-02-10T09:34:25;91460.25;;;-1.85;45.54
76074;BME280;64776;42.636;24.358;2023-02-10T09:37:27;91459.72;;;-1.54;45.53
76074;BME280;64776;42.636;24.358;2023-02-10T09:40:32;91457.56;;;-1.41;45.53
76074;BME280;64776;42.636;24.358;2023-02-10T09:43:57;91450.22;;;-1.22;45.94
76074;BME280;64776;42.636;24.358;2023-02-10T09:47:23;91439.91;;;-0.79;44.48
76074;BME280;64776;42.636;24.358;2023-02-10T09:50:33;91439.59;;;-0.64;42.76
76074;BME280;64776;42.636;24.358;2023-02-10T09:53:38;91434.63;;;-0.97;43.63
76074;BME280;64776;42.636;24.358;2023-02-10T09:56:40;91432.84;;;-0.68;43.94
76074;BME280;64776;42.636;24.358;2023-02-10T09:59:41;91435.81;;;-0.70;43.92
76074;BME280;64776;42.636;24.358;2023-02-10T10:02:46;91427.63;;;-0.58;44.36
76074;BME280;64776;42.636;24.358;2023-02-10T10:05:57;91423.53;;;-0.52;43.59
76074;BME280;64776;42.636;24.358;2023-02-10T10:09:21;91423.94;;;0.03;42.18
76074;BME280;64776;42.636;24.358;2023-02-10T10:12:24;91417.59;;;0.04;43.25
76074;BME280;64776;42.636;24.358;2023-02-10T10:15:31;91416.06;;;-0.04;43.44
76074;BME280;64776;42.636;24.358;2023-02-10T10:18:42;91409.69;;;-0.24;43.20
76074;BME280;64776;42.636;24.358;2023-02-10T10:21:52;91402.97;;;-0.15;43.13
76074;BME280;64776;42.636;24.358;2023-02-10T10:25:26;91406.72;;;0.06;41.77
76074;BME280;64776;42.636;24.358;2023-02-10T10:28:37;91402.22;;;0.20;40.50
76074;BME280;64776;42.636;24.358;2023-02-10T10:31:44;91402.16;;;0.41;39.15
76074;BME280;64776;42.636;24.358;2023-02-10T10:34:50;91397.13;;;1.03;40.25
76074;BME280;64776;42.636;24.358;2023-02-10T10:37:52;91390.94;;;1.41;40.00
76074;BME280;64776;42.636;24.358;2023-02-10T10:40:58;91389.84;;;1.35;37.94
76074;BME280;64776;42.636;24.358;2023-02-10T10:43:59;91390.69;;;1.15;38.57
76074;BME280;64776;42.636;24.358;2023-02-10T10:47:05;91392.34;;;0.77;38.38
76074;BME280;64776;42.636;24.358;2023-02-10T10:50:14;91396.69;;;1.19;38.47
76074;BME280;64776;42.636;24.358;2023-02-10T10:53:18;91387.13;;;1.53;37.87
76074;BME280;64776;42.636;24.358;2023-02-10T10:56:30;91384.97;;;1.30;38.48
76074;BME280;64776;42.636;24.358;2023-02-10T10:59:37;91382.56;;;1.57;38.49
76074;BME280;64776;42.636;24.358;2023-02-10T11:02:38;91377.00;;;1.48;39.36
76074;BME280;64776;42.636;24.358;2023-02-10T11:05:39;91379.06;;;1.78;40.12
76074;BME280;64776;42.636;24.358;2023-02-10T11:08:43;91374.16;;;1.83;39.45
76074;BME280;64776;42.636;24.358;2023-02-10T11:11:46;91367.16;;;1.62;37.91
76074;BME280;64776;42.636;24.358;2023-02-10T11:14:49;91362.53;;;1.81;39.71
76074;BME280;64776;42.636;24.358;2023-02-10T11:17:51;91362.00;;;2.00;37.84
76074;BME280;64776;42.636;24.358;2023-02-10T11:20:55;91365.81;;;2.36;38.26
76074;BME280;64776;42.636;24.358;2023-02-10T11:23:56;91373.31;;;2.41;37.74
76074;BME280;64776;42.636;24.358;2023-02-10T11:27:00;91366.13;;;2.41;36.48
76074;BME280;64776;42.636;24.358;2023-02-10T11:30:02;91360.09;;;2.44;37.91
76074;BME280;64776;42.636;24.358;2023-02-10T11:33:06;91346.81;;;2.55;38.10
76074;BME280;64776;42.636;24.358;2023-02-10T11:36:16;91344.81;;;2.29;38.10
76074;BME280;64776;42.636;24.358;2023-02-10T11:39:20;91355.72;;;2.68;39.82
76074;BME280;64776;42.636;24.358;2023-02-10T11:42:26;91340.22;;;2.74;37.87
76074;BME280;64776;42.636;24.358;2023-02-10T11:45:29;91341.47;;;2.62;39.21
76074;BME280;64776;42.636;24.358;2023-02-10T11:48:31;91347.19;;;2.57;37.95
76074;BME280;64776;42.636;24.358;2023-02-10T11:51:32;91342.91;;;1.89;40.47
76074;BME280;64776;42.636;24.358;2023-02-10T11:54:33;91349.44;;;2.14;39.40
76074;BME280;64776;42.636;24.358;2023-02-10T11:57:44;91351.41;;;2.07;39.67
76074;BME280;64776;42.636;24.358;2023-02-10T12:00:54;91347.44;;;1.85;39.46
76074;BME280;64776;42.636;24.358;2023-02-10T12:04:01;91338.78;;;1.88;41.42
76074;BME280;64776;42.636;24.358;2023-02-10T12:07:08;91331.41;;;2.13;40.87
76074;BME280;64776;42.636;24.358;2023-02-10T12:10:16;91333.00;;;2.03;41.25
76074;BME280;64776;42.636;24.358;2023-02-10T12:13:28;91330.88;;;1.88;40.38
76074;BME280;64776;42.636;24.358;2023-02-10T12:16:36;91331.84;;;2.08;41.08
76074;BME280;64776;42.636;24.358;2023-02-10T12:19:48;91335.25;;;2.05;41.41
76074;BME280;64776;42.636;24.358;2023-02-10T12:23:18;91338.38;;;1.93;42.34
76074;BME280;64776;42.636;24.358;2023-02-10T12:26:29;91329.78;;;1.82;42.01
76074;BME280;64776;42.636;24.358;2023-02-10T12:29:42;91327.72;;;1.62;42.99
76074;BME280;64776;42.636;24.358;2023-02-10T12:32:54;91325.53;;;1.98;42.45
76074;BME280;64776;42.636;24.358;2023-02-10T12:36:03;91324.94;;;2.24;41.87
76074;BME280;64776;42.636;24.358;2023-02-10T12:39:13;91330.03;;;2.42;41.09
76074;BME280;64776;42.636;24.358;2023-02-10T12:42:30;91333.22;;;2.60;40.51
76074;BME280;64776;42.636;24.358;2023-02-10T12:45:42;91330.78;;;2.76;41.32
76074;BME280;64776;42.636;24.358;2023-02-10T12:49:12;91327.88;;;2.67;40.76
76074;BME280;64776;42.636;24.358;2023-02-10T12:52:19;91319.63;;;2.65;40.75
76074;BME280;64776;42.636;24.358;2023-02-10T12:55:25;91317.56;;;2.46;41.25
76074;BME280;64776;42.636;24.358;2023-02-10T12:58:30;91314.41;;;2.58;41.05
76074;BME280;64776;42.636;24.358;2023-02-10T13:01:38;91324.34;;;2.47;39.80
76074;BME280;64776;42.636;24.358;2023-02-10T13:04:43;91336.72;;;2.09;41.02
76074;BME280;64776;42.636;24.358;2023-02-10T13:07:49;91323.25;;;2.00;43.42
76074;BME280;64776;42.636;24.358;2023-02-10T13:10:52;91325.59;;;2.32;41.65
76074;BME280;64776;42.636;24.358;2023-02-10T13:13:58;91312.69;;;2.78;41.21
76074;BME280;64776;42.636;24.358;2023-02-10T13:17:04;91317.06;;;2.58;40.12
76074;BME280;64776;42.636;24.358;2023-02-10T13:20:11;91328.03;;;2.53;42.10
76074;BME280;64776;42.636;24.358;2023-02-10T13:23:24;91317.06;;;2.58;41.96
76074;BME280;64776;42.636;24.358;2023-02-10T13:26:38;91324.59;;;2.90;40.35
76074;BME280;64776;42.636;24.358;2023-02-10T13:29:49;91319.47;;;3.40;41.87
76074;BME280;64776;42.636;24.358;2023-02-10T13:33:01;91316.00;;;3.43;40.41
76074;BME280;64776;42.636;24.358;2023-02-10T13:36:09;91310.44;;;3.37;38.42
76074;BME280;64776;42.636;24.358;2023-02-10T13:39:17;91316.69;;;3.47;39.59
76074;BME280;64776;42.636;24.358;2023-02-10T13:42:24;91314.66;;;3.04;40.74
76074;BME280;64776;42.636;24.358;2023-02-10T13:45:27;91316.41;;;2.84;40.52
76074;BME280;64776;42.636;24.358;2023-02-10T13:48:31;91316.41;;;2.84;39.69
76074;BME280;64776;42.636;24.358;2023-02-10T13:51:34;91311.13;;;2.84;40.06
76074;BME280;64776;42.636;24.358;2023-02-10T13:54:36;91309.56;;;2.87;40.16
76074;BME280;64776;42.636;24.358;2023-02-10T13:57:38;91311.00;;;3.21;39.38
76074;BME280;64776;42.636;24.358;2023-02-10T14:00:53;91312.94;;;3.21;39.45
76074;BME280;64776;42.636;24.358;2023-02-10T14:03:56;91319.00;;;3.45;40.96
76074;BME280;64776;42.636;24.358;2023-02-10T14:06:57;91302.56;;;3.60;39.95
76074;BME280;64776;42.636;24.358;2023-02-10T14:10:02;91308.03;;;3.73;38.98
76074;BME280;64776;42.636;24.358;2023-02-10T14:13:18;91309.13;;;3.75;40.12
76074;BME280;64776;42.636;24.358;2023-02-10T14:16:29;91306.44;;;4.02;39.53
76074;BME280;64776;42.636;24.358;2023-02-10T14:19:34;91311.03;;;3.98;39.91
76074;BME280;64776;42.636;24.358;2023-02-10T14:22:36;91320.56;;;4.15;40.72
76074;BME280;64776;42.636;24.358;2023-02-10T14:25:39;91319.88;;;4.34;41.44
76074;BME280;64776;42.636;24.358;2023-02-10T14:28:42;91318.38;;;3.87;39.70
76074;BME280;64776;42.636;24.358;2023-02-10T14:31:50;91319.81;;;3.65;41.72
76074;BME280;64776;42.636;24.358;2023-02-10T14:34:56;91322.53;;;3.35;42.19
76074;BME280;64776;42.636;24.358;2023-02-10T14:37:58;91322.91;;;3.06;43.68
76074;BME280;64776;42.636;24.358;2023-02-10T14:40:59;91322.56;;;2.33;44.01
76074;BME280;64776;42.636;24.358;2023-02-10T14:44:01;91331.88;;;1.56;46.27
76074;BME280;64776;42.636;24.358;2023-02-10T14:47:02;91334.44;;;1.02;47.36
76074;BME280;64776;42.636;24.358;2023-02-10T14:50:06;91330.56;;;0.41;48.21
76074;BME280;64776;42.636;24.358;2023-02-10T14:53:16;91339.63;;;0.05;49.34
76074;BME280;64776;42.636;24.358;2023-02-10T14:56:19;91333.28;;;-0.26;48.89
76074;BME280;64776;42.636;24.358;2023-02-10T14:59:23;91337.00;;;-0.66;49.33
76074;BME280;64776;42.636;24.358;2023-02-10T15:02:26;91333.88;;;-1.21;50.83
76074;BME280;64776;42.636;24.358;2023-02-10T15:05:31;91336.63;;;-1.79;52.07
76074;BME280;64776;42.636;24.358;2023-02-10T15:08:38;91331.63;;;-2.59;52.94
76074;BME280;64776;42.636;24.358;2023-02-10T15:11:40;91333.28;;;-2.37;53.93
76074;BME280;64776;42.636;24.358;2023-02-10T15:14:45;91334.78;;;-2.39;53.76
76074;BME280;64776;42.636;24.358;2023-02-10T15:17:50;91341.78;;;-2.51;54.36
76074;BME280;64776;42.636;24.358;2023-02-10T15:20:55;91347.78;;;-2.43;53.56
76074;BME280;64776;42.636;24.358;2023-02-10T15:24:00;91352.69;;;-2.41;53.35
76074;BME280;64776;42.636;24.358;2023-02-10T15:27:12;91355.47;;;-2.64;54.10
76074;BME280;64776;42.636;24.358;2023-02-10T15:30:17;91351.38;;;-3.05;55.48
76074;BME280;64776;42.636;24.358;2023-02-10T15:33:20;91349.06;;;-3.10;55.41
76074;BME280;64776;42.636;24.358;2023-02-10T15:36:24;91354.28;;;-3.10;55.00
76074;BME280;64776;42.636;24.358;2023-02-10T15:39:27;91355.72;;;-3.16;55.43
76074;BME280;64776;42.636;24.358;2023-02-10T15:42:30;91360.50;;;-3.22;57.93
76074;BME280;64776;42.636;24.358;2023-02-10T15:45:31;91362.56;;;-3.38;57.59
76074;BME280;64776;42.636;24.358;2023-02-10T15:48:32;91365.09;;;-3.45;57.07
76074;BME280;64776;42.636;24.358;2023-02-10T15:51:38;91364.41;;;-3.39;57.54
76074;BME280;64776;42.636;24.358;2023-02-10T15:54:39;91367.97;;;-3.54;57.56
76074;BME280;64776;42.636;24.358;2023-02-10T15:57:40;91372.84;;;-3.82;56.61
76074;BME280;64776;42.636;24.358;2023-02-10T16:00:41;91374.28;;;-3.84;55.92